createdAt,value
2023-02-12T00:00:45.954Z,0.00
2023-02-12T00:01:46.111Z,0.00
2023-02-12T00:02:46.301Z,0.00
2023-02-12T00:03:46.545Z,0.00
2023-02-12T00:04:46.648Z,0.00
2023-02-12T00:05:46.792Z,0.00
2023-02-12T00:06:46.984Z,0.00
2023-02-12T00:07:47.162Z,0.00
2023-02-12T00:08:47.377Z,0.00
2023-02-12T00:09:47.519Z,0.00
2023-02-12T00:10:47.725Z,0.00
2023-02-12T00:11:47.867Z,0.00
2023-02-12T00:12:48.059Z,0.00
2023-02-12T00:13:48.244Z,0.00
2023-02-12T00:14:48.409Z,0.00
2023-02-12T00:15:48.605Z,0.00
2023-02-12T00:16:48.747Z,0.00
2023-02-12T00:17:48.906Z,0.00
2023-02-12T00:18:49.101Z,0.00
2023-02-12T00:19:49.265Z,0.00
2023-02-12T00:20:49.440Z,0.00
2023-02-12T00:21:49.614Z,0.00
2023-02-12T00:22:49.778Z,0.00
2023-02-12T00:23:50.202Z,0.00
2023-02-12T00:24:50.127Z,0.00
2023-02-12T00:25:50.340Z,0.00
2023-02-12T00:26:50.482Z,0.00
2023-02-12T00:27:50.662Z,0.00
2023-02-12T00:28:50.902Z,0.00
2023-02-12T00:29:50.999Z,0.00
2023-02-12T00:30:51.221Z,0.00
2023-02-12T00:31:51.402Z,0.00
2023-02-12T00:32:51.497Z,0.00
2023-02-12T00:33:51.686Z,0.00
2023-02-12T00:34:51.835Z,0.00
2023-02-12T00:35:52.165Z,0.00
2023-02-12T00:36:52.173Z,0.00
2023-02-12T00:37:52.368Z,0.00
2023-02-12T00:38:52.546Z,0.00
2023-02-12T00:39:52.697Z,0.00
2023-02-12T00:40:52.895Z,0.00
2023-02-12T00:41:53.050Z,0.00
2023-02-12T00:42:53.249Z,0.00
2023-02-12T00:43:53.448Z,0.00
2023-02-12T00:44:53.589Z,0.00
2023-02-12T00:45:54.251Z,0.00
2023-02-12T00:46:53.941Z,0.00
2023-02-12T00:47:54.108Z,0.00
2023-02-12T00:48:54.281Z,0.00
2023-02-12T00:49:54.431Z,0.00
2023-02-12T00:50:54.629Z,0.00
2023-02-12T00:51:54.817Z,0.00
2023-02-12T00:52:54.982Z,0.00
2023-02-12T00:53:55.187Z,0.00
2023-02-12T00:54:55.364Z,0.00
2023-02-12T00:55:56.032Z,0.00
2023-02-12T00:56:55.677Z,0.00
2023-02-12T00:57:55.852Z,0.00
2023-02-12T00:58:56.006Z,0.00
2023-02-12T00:59:56.190Z,0.00
2023-02-12T01:00:56.333Z,0.00
2023-02-12T01:01:56.596Z,0.00
2023-02-12T01:02:56.720Z,0.00
2023-02-12T01:03:56.884Z,0.00
2023-02-12T01:04:57.105Z,0.00
2023-02-12T01:05:57.706Z,0.00
2023-02-12T01:06:57.364Z,0.00
2023-02-12T01:07:57.534Z,0.00
2023-02-12T01:08:57.709Z,0.00
2023-02-12T01:09:57.886Z,0.00
2023-02-12T01:10:58.033Z,0.00
2023-02-12T01:11:58.217Z,0.00
2023-02-12T01:12:58.405Z,0.00
2023-02-12T01:13:58.584Z,0.00
2023-02-12T01:14:58.747Z,0.00
2023-02-12T01:15:59.252Z,0.00
2023-02-12T01:16:59.103Z,0.00
2023-02-12T01:17:59.289Z,0.00
2023-02-12T01:18:59.467Z,0.00
2023-02-12T01:19:59.651Z,0.00
2023-02-12T01:20:59.800Z,0.00
2023-02-12T01:21:59.955Z,0.00
2023-02-12T01:23:00.110Z,0.00
2023-02-12T01:24:00.325Z,0.00
2023-02-12T01:25:00.481Z,0.00
2023-02-12T01:26:00.627Z,0.00
2023-02-12T01:27:00.809Z,0.00
2023-02-12T01:28:01.063Z,0.00
2023-02-12T01:29:01.179Z,0.00
2023-02-12T01:30:01.389Z,0.00
2023-02-12T01:31:01.589Z,0.00
2023-02-12T01:32:01.933Z,0.00
2023-02-12T01:33:01.857Z,0.00
2023-02-12T01:34:02.039Z,0.00
2023-02-12T01:35:02.188Z,0.00
2023-02-12T01:36:02.366Z,0.00
2023-02-12T01:37:02.538Z,0.00
2023-02-12T01:38:02.739Z,0.00
2023-02-12T01:39:03.078Z,0.00
2023-02-12T01:40:03.067Z,0.00
2023-02-12T01:41:03.211Z,0.00
2023-02-12T01:42:03.376Z,0.00
2023-02-12T01:43:03.574Z,0.00
2023-02-12T01:44:03.730Z,0.00
2023-02-12T01:45:03.909Z,0.00
2023-02-12T01:46:04.091Z,0.00
2023-02-12T01:47:04.287Z,0.00
2023-02-12T01:48:04.463Z,0.00
2023-02-12T01:49:04.613Z,0.00
2023-02-12T01:50:04.803Z,0.00
2023-02-12T01:51:04.948Z,0.00
2023-02-12T01:52:05.160Z,0.00
2023-02-12T01:53:05.313Z,0.00
2023-02-12T01:54:05.460Z,0.00
2023-02-12T01:55:05.613Z,0.00
2023-02-12T01:56:05.798Z,0.00
2023-02-12T01:57:05.979Z,0.00
2023-02-12T01:58:06.178Z,0.00
2023-02-12T01:59:06.355Z,0.00
2023-02-12T02:00:06.547Z,0.00
2023-02-12T02:01:06.725Z,0.00
2023-02-12T02:02:06.968Z,0.00
2023-02-12T02:03:07.105Z,0.00
2023-02-12T02:04:07.259Z,0.00
2023-02-12T02:05:07.440Z,0.00
2023-02-12T02:06:07.615Z,0.00
2023-02-12T02:07:07.807Z,0.00
2023-02-12T02:08:07.971Z,0.00
2023-02-12T02:09:08.125Z,0.00
2023-02-12T02:10:08.313Z,0.00
2023-02-12T02:11:08.494Z,0.00
2023-02-12T02:12:08.728Z,0.00
2023-02-12T02:13:08.859Z,0.00
2023-02-12T02:14:09.034Z,0.00
2023-02-12T02:15:09.187Z,0.00
2023-02-12T02:16:09.423Z,0.00
2023-02-12T02:17:09.555Z,0.00
2023-02-12T02:18:09.697Z,0.00
2023-02-12T02:19:09.904Z,0.00
2023-02-12T02:20:10.039Z,0.00
2023-02-12T02:21:10.181Z,0.00
2023-02-12T02:22:10.360Z,0.00
2023-02-12T02:23:10.516Z,0.00
2023-02-12T02:24:10.687Z,0.00
2023-02-12T02:25:10.851Z,0.00
2023-02-12T02:26:11.008Z,0.00
2023-02-12T02:27:11.161Z,0.00
2023-02-12T02:28:11.348Z,0.00
2023-02-12T02:29:11.478Z,0.00
2023-02-12T02:30:11.690Z,0.00
2023-02-12T02:31:11.981Z,0.00
2023-02-12T02:32:12.066Z,0.00
2023-02-12T02:33:12.170Z,0.00
2023-02-12T02:34:12.364Z,0.00
2023-02-12T02:35:12.557Z,0.00
2023-02-12T02:36:12.717Z,0.00
2023-02-12T02:37:12.901Z,0.00
2023-02-12T02:38:13.060Z,0.00
2023-02-12T02:39:13.218Z,0.00
2023-02-12T02:40:13.399Z,0.00
2023-02-12T02:41:13.558Z,0.00
2023-02-12T02:42:13.728Z,0.00
2023-02-12T02:43:13.909Z,0.00
2023-02-12T02:44:14.113Z,0.00
2023-02-12T02:45:14.289Z,0.00
2023-02-12T02:46:14.521Z,0.00
2023-02-12T02:47:14.658Z,0.00
2023-02-12T02:48:14.812Z,0.00
2023-02-12T02:49:14.958Z,0.00
2023-02-12T02:50:15.191Z,0.00
2023-02-12T02:51:15.313Z,0.00
2023-02-12T02:52:15.497Z,0.00
2023-02-12T02:53:15.648Z,0.00
2023-02-12T02:54:15.824Z,0.00
2023-02-12T02:55:16.001Z,0.00
2023-02-12T02:56:16.158Z,0.00
2023-02-12T02:57:16.347Z,0.00
2023-02-12T02:58:16.520Z,0.00
2023-02-12T02:59:16.680Z,0.00
2023-02-12T03:00:16.904Z,0.00
2023-02-12T03:01:17.068Z,0.00
2023-02-12T03:02:17.205Z,0.00
2023-02-12T03:03:17.370Z,0.00
2023-02-12T03:04:17.525Z,0.00
2023-02-12T03:05:17.701Z,0.00
2023-02-12T03:06:17.889Z,0.00
2023-02-12T03:07:18.038Z,0.00
2023-02-12T03:08:18.229Z,0.00
2023-02-12T03:09:18.419Z,0.00
2023-02-12T03:10:18.596Z,0.00
2023-02-12T03:11:18.754Z,0.00
2023-02-12T03:12:18.905Z,0.00
2023-02-12T03:13:19.118Z,0.00
2023-02-12T03:14:19.269Z,0.00
2023-02-12T03:15:19.475Z,0.00
2023-02-12T03:16:19.714Z,0.00
2023-02-12T03:17:19.796Z,0.00
2023-02-12T03:18:19.971Z,0.00
2023-02-12T03:19:20.124Z,0.00
2023-02-12T03:20:20.303Z,0.00
2023-02-12T03:21:20.452Z,0.00
2023-02-12T03:22:20.614Z,0.00
2023-02-12T03:23:20.761Z,0.00
2023-02-12T03:24:20.932Z,0.00
2023-02-12T03:25:21.083Z,0.00
2023-02-12T03:26:21.271Z,0.00
2023-02-12T03:27:21.422Z,0.00
2023-02-12T03:28:21.644Z,0.00
2023-02-12T03:29:21.746Z,0.00
2023-02-12T03:30:21.922Z,0.00
2023-02-12T03:31:22.155Z,0.00
2023-02-12T03:32:22.283Z,0.00
2023-02-12T03:33:22.439Z,0.00
2023-02-12T03:34:22.601Z,0.00
2023-02-12T03:35:22.781Z,0.00
2023-02-12T03:36:22.936Z,0.00
2023-02-12T03:37:23.089Z,0.00
2023-02-12T03:38:23.272Z,0.00
2023-02-12T03:39:23.418Z,0.00
2023-02-12T03:40:23.588Z,0.00
2023-02-12T03:41:23.820Z,0.00
2023-02-12T03:42:23.948Z,0.00
2023-02-12T03:43:24.134Z,0.00
2023-02-12T03:44:24.320Z,0.00
2023-02-12T03:45:24.473Z,0.00
2023-02-12T03:46:24.722Z,0.00
2023-02-12T03:47:24.802Z,0.00
2023-02-12T03:48:24.975Z,0.00
2023-02-12T03:49:25.124Z,0.00
2023-02-12T03:50:25.296Z,0.00
2023-02-12T03:51:25.505Z,0.00
2023-02-12T03:52:25.682Z,0.00
2023-02-12T03:53:25.824Z,0.00
2023-02-12T03:54:26.017Z,0.00
2023-02-12T03:55:26.168Z,0.00
2023-02-12T03:56:26.400Z,0.00
2023-02-12T03:57:26.541Z,0.00
2023-02-12T03:58:26.700Z,0.00
2023-02-12T03:59:26.865Z,0.00
2023-02-12T04:00:27.022Z,0.00
2023-02-12T04:01:27.265Z,0.00
2023-02-12T04:02:27.368Z,0.00
2023-02-12T04:03:27.520Z,0.00
2023-02-12T04:04:27.794Z,0.00
2023-02-12T04:05:27.887Z,0.00
2023-02-12T04:06:28.063Z,0.00
2023-02-12T04:07:28.233Z,0.00
2023-02-12T04:08:28.433Z,0.00
2023-02-12T04:09:28.572Z,0.00
2023-02-12T04:10:28.744Z,0.00
2023-02-12T04:11:28.890Z,0.00
2023-02-12T04:12:29.070Z,0.00
2023-02-12T04:13:29.222Z,0.00
2023-02-12T04:14:29.393Z,0.00
2023-02-12T04:15:29.587Z,0.00
2023-02-12T04:16:29.846Z,0.00
2023-02-12T04:17:29.935Z,0.00
2023-02-12T04:18:30.094Z,0.00
2023-02-12T04:19:30.250Z,0.00
2023-02-12T04:20:30.428Z,0.00
2023-02-12T04:21:30.574Z,0.00
2023-02-12T04:22:30.780Z,0.00
2023-02-12T04:23:30.902Z,0.00
2023-02-12T04:24:31.064Z,0.00
2023-02-12T04:25:31.220Z,0.00
2023-02-12T04:26:31.381Z,0.00
2023-02-12T04:27:31.551Z,0.00
2023-02-12T04:28:31.782Z,0.00
2023-02-12T04:29:31.887Z,0.00
2023-02-12T04:30:32.173Z,0.00
2023-02-12T04:31:32.392Z,0.00
2023-02-12T04:32:32.452Z,0.00
2023-02-12T04:33:32.570Z,0.00
2023-02-12T04:34:32.762Z,0.00
2023-02-12T04:35:32.925Z,0.00
2023-02-12T04:36:33.124Z,0.00
2023-02-12T04:37:33.243Z,0.00
2023-02-12T04:38:33.411Z,0.00
2023-02-12T04:39:33.566Z,0.00
2023-02-12T04:40:33.722Z,0.00
2023-02-12T04:41:33.893Z,0.00
2023-02-12T04:42:34.048Z,0.00
2023-02-12T04:43:36.326Z,0.00
2023-02-12T04:44:34.378Z,0.00
2023-02-12T04:45:34.553Z,0.00
2023-02-12T04:46:34.709Z,0.00
2023-02-12T04:47:34.874Z,0.00
2023-02-12T04:48:35.036Z,0.00
2023-02-12T04:49:35.190Z,0.00
2023-02-12T04:50:37.108Z,0.00
2023-02-12T04:51:35.555Z,0.00
2023-02-12T04:52:35.705Z,0.00
2023-02-12T04:53:35.874Z,0.00
2023-02-12T04:54:36.036Z,0.00
2023-02-12T04:55:36.206Z,0.00
2023-02-12T04:56:36.362Z,0.00
2023-02-12T04:57:36.562Z,0.00
2023-02-12T04:58:36.697Z,0.00
2023-02-12T04:59:36.886Z,0.00
2023-02-12T05:00:37.065Z,0.00
2023-02-12T05:01:37.280Z,0.00
2023-02-12T05:02:37.388Z,0.00
2023-02-12T05:03:37.556Z,0.00
2023-02-12T05:04:37.736Z,0.00
2023-02-12T05:05:37.880Z,0.00
2023-02-12T05:06:38.056Z,0.00
2023-02-12T05:07:38.240Z,0.00
2023-02-12T05:08:38.388Z,0.00
2023-02-12T05:09:38.561Z,0.00
2023-02-12T05:10:38.738Z,0.00
2023-02-12T05:11:38.898Z,0.00
2023-02-12T05:12:39.041Z,0.00
2023-02-12T05:13:39.212Z,0.00
2023-02-12T05:14:39.385Z,0.00
2023-02-12T05:15:39.563Z,0.00
2023-02-12T05:16:39.690Z,0.00
2023-02-12T05:17:39.895Z,0.00
2023-02-12T05:18:40.054Z,0.00
2023-02-12T05:19:40.241Z,0.00
2023-02-12T05:20:40.397Z,0.00
2023-02-12T05:21:40.566Z,0.00
2023-02-12T05:22:40.729Z,0.00
2023-02-12T05:23:40.897Z,0.00
2023-02-12T05:24:41.064Z,0.00
2023-02-12T05:25:41.220Z,0.00
2023-02-12T05:26:41.377Z,0.00
2023-02-12T05:27:41.574Z,0.00
2023-02-12T05:28:41.730Z,0.00
2023-02-12T05:29:41.959Z,0.00
2023-02-12T05:30:42.168Z,0.00
2023-02-12T05:31:42.392Z,0.00
2023-02-12T05:32:42.450Z,0.00
2023-02-12T05:33:42.612Z,0.00
2023-02-12T05:34:42.780Z,0.00
2023-02-12T05:35:42.941Z,0.00
2023-02-12T05:36:43.110Z,0.00
2023-02-12T05:37:43.276Z,0.00
2023-02-12T05:38:43.445Z,0.00
2023-02-12T05:39:43.615Z,0.00
2023-02-12T05:40:43.804Z,0.00
2023-02-12T05:41:43.956Z,0.00
2023-02-12T05:42:44.105Z,0.00
2023-02-12T05:43:44.325Z,0.00
2023-02-12T05:44:44.492Z,0.00
2023-02-12T05:45:44.667Z,0.00
2023-02-12T05:46:44.866Z,0.00
2023-02-12T05:47:45.001Z,0.00
2023-02-12T05:48:45.162Z,0.00
2023-02-12T05:49:45.325Z,0.00
2023-02-12T05:50:45.486Z,0.00
2023-02-12T05:51:45.647Z,0.00
2023-02-12T05:52:45.815Z,0.00
2023-02-12T05:53:46.004Z,0.00
2023-02-12T05:54:46.162Z,0.00
2023-02-12T05:55:46.316Z,0.00
2023-02-12T05:56:46.475Z,0.00
2023-02-12T05:57:46.678Z,0.00
2023-02-12T05:58:46.870Z,0.00
2023-02-12T05:59:47.011Z,0.00
2023-02-12T06:00:47.173Z,0.00
2023-02-12T06:01:47.340Z,0.00
2023-02-12T06:02:47.521Z,0.00
2023-02-12T06:03:47.720Z,0.00
2023-02-12T06:04:48.746Z,0.00
2023-02-12T06:05:48.048Z,0.00
2023-02-12T06:06:48.206Z,0.00
2023-02-12T06:07:48.382Z,0.00
2023-02-12T06:08:48.561Z,0.00
2023-02-12T06:09:48.705Z,0.00
2023-02-12T06:10:48.862Z,0.00
2023-02-12T06:11:49.028Z,0.00
2023-02-12T06:12:49.195Z,0.00
2023-02-12T06:13:49.359Z,0.00
2023-02-12T06:14:49.518Z,0.00
2023-02-12T06:15:49.711Z,0.00
2023-02-12T06:16:49.841Z,0.00
2023-02-12T06:17:50.009Z,0.00
2023-02-12T06:18:50.184Z,0.00
2023-02-12T06:19:50.341Z,0.00
2023-02-12T06:20:50.495Z,0.00
2023-02-12T06:21:50.662Z,0.00
2023-02-12T06:22:50.837Z,0.00
2023-02-12T06:23:51.019Z,0.00
2023-02-12T06:24:51.188Z,0.00
2023-02-12T06:25:51.370Z,0.00
2023-02-12T06:26:51.528Z,0.00
2023-02-12T06:27:51.700Z,0.00
2023-02-12T06:28:51.880Z,0.00
2023-02-12T06:29:52.042Z,0.00
2023-02-12T06:30:52.261Z,0.00
2023-02-12T06:31:52.501Z,0.00
2023-02-12T06:32:52.556Z,0.00
2023-02-12T06:33:52.717Z,0.00
2023-02-12T06:34:52.894Z,0.00
2023-02-12T06:35:53.098Z,0.00
2023-02-12T06:36:53.223Z,0.00
2023-02-12T06:37:53.376Z,0.00
2023-02-12T06:38:53.564Z,0.00
2023-02-12T06:39:53.746Z,0.00
2023-02-12T06:40:53.932Z,0.00
2023-02-12T06:41:54.118Z,0.00
2023-02-12T06:42:54.281Z,0.00
2023-02-12T06:43:54.462Z,0.00
2023-02-12T06:44:54.622Z,0.00
2023-02-12T06:45:55.124Z,0.00
2023-02-12T06:46:55.010Z,0.00
2023-02-12T06:47:55.128Z,0.00
2023-02-12T06:48:55.315Z,0.00
2023-02-12T06:49:55.520Z,0.00
2023-02-12T06:50:55.660Z,0.00
2023-02-12T06:51:55.841Z,0.00
2023-02-12T06:52:56.017Z,0.00
2023-02-12T06:53:56.197Z,0.00
2023-02-12T06:54:56.398Z,0.00
2023-02-12T06:55:56.903Z,0.00
2023-02-12T06:56:56.713Z,0.00
2023-02-12T06:57:56.892Z,0.00
2023-02-12T06:58:57.090Z,0.00
2023-02-12T06:59:57.241Z,0.00
2023-02-12T07:00:57.474Z,0.00
2023-02-12T07:01:57.621Z,0.00
2023-02-12T07:02:57.769Z,0.00
2023-02-12T07:03:58.048Z,0.00
2023-02-12T07:04:58.097Z,0.00
2023-02-12T07:05:58.432Z,0.00
2023-02-12T07:06:58.457Z,0.00
2023-02-12T07:07:58.651Z,0.00
2023-02-12T07:08:58.821Z,0.00
2023-02-12T07:09:58.978Z,0.00
2023-02-12T07:10:59.162Z,0.00
2023-02-12T07:11:59.301Z,0.00
2023-02-12T07:12:59.476Z,0.00
2023-02-12T07:13:59.675Z,0.00
2023-02-12T07:14:59.828Z,0.00
2023-02-12T07:16:00.085Z,0.00
2023-02-12T07:17:00.163Z,0.00
2023-02-12T07:18:00.342Z,0.00
2023-02-12T07:19:00.521Z,0.00
2023-02-12T07:20:00.684Z,0.00
2023-02-12T07:21:00.924Z,0.00
2023-02-12T07:22:01.092Z,0.00
2023-02-12T07:23:01.209Z,0.00
2023-02-12T07:24:01.401Z,0.00
2023-02-12T07:25:01.567Z,0.00
2023-02-12T07:26:01.771Z,0.00
2023-02-12T07:27:01.903Z,0.00
2023-02-12T07:28:02.101Z,0.00
2023-02-12T07:29:02.223Z,0.00
2023-02-12T07:30:02.425Z,0.00
2023-02-12T07:31:02.849Z,0.00
2023-02-12T07:32:02.802Z,0.00
2023-02-12T07:33:02.920Z,0.00
2023-02-12T07:34:03.100Z,0.00
2023-02-12T07:35:03.282Z,0.00
2023-02-12T07:36:03.482Z,5.62
2023-02-12T07:37:03.624Z,5.62
2023-02-12T07:38:03.781Z,5.62
2023-02-12T07:39:03.942Z,5.62
2023-02-12T07:40:04.147Z,5.62
2023-02-12T07:41:04.274Z,5.62
2023-02-12T07:42:04.467Z,5.62
2023-02-12T07:43:04.599Z,5.62
2023-02-12T07:44:04.754Z,5.62
2023-02-12T07:45:04.935Z,5.62
2023-02-12T07:46:05.202Z,5.62
2023-02-12T07:47:05.265Z,5.62
2023-02-12T07:48:05.447Z,5.62
2023-02-12T07:49:05.617Z,5.62
2023-02-12T07:50:05.793Z,5.62
2023-02-12T07:51:05.956Z,5.62
2023-02-12T07:52:06.123Z,5.62
2023-02-12T07:53:06.288Z,5.62
2023-02-12T07:54:06.447Z,5.62
2023-02-12T07:55:06.621Z,5.62
2023-02-12T07:56:06.811Z,5.62
2023-02-12T07:57:06.955Z,5.62
2023-02-12T07:58:07.122Z,5.62
2023-02-12T07:59:07.283Z,5.62
2023-02-12T08:00:07.459Z,5.62
2023-02-12T08:01:07.621Z,5.62
2023-02-12T08:02:07.857Z,5.62
2023-02-12T08:03:07.959Z,5.62
2023-02-12T08:04:08.164Z,5.62
2023-02-12T08:05:08.300Z,5.62
2023-02-12T08:06:08.480Z,5.62
2023-02-12T08:07:08.640Z,5.62
2023-02-12T08:08:08.832Z,5.62
2023-02-12T08:09:08.984Z,5.62
2023-02-12T08:10:09.151Z,5.62
2023-02-12T08:11:09.312Z,5.62
2023-02-12T08:12:09.548Z,5.62
2023-02-12T08:13:09.664Z,5.62
2023-02-12T08:14:09.848Z,5.62
2023-02-12T08:15:10.022Z,5.62
2023-02-12T08:16:10.203Z,5.62
2023-02-12T08:17:10.369Z,5.62
2023-02-12T08:18:10.533Z,5.62
2023-02-12T08:19:19.479Z,5.62
2023-02-12T08:20:11.861Z,5.62
2023-02-12T08:21:11.045Z,5.62
2023-02-12T08:22:11.206Z,5.62
2023-02-12T08:23:11.373Z,5.62
2023-02-12T08:24:11.547Z,5.62
2023-02-12T08:25:11.726Z,5.62
2023-02-12T08:26:11.902Z,5.62
2023-02-12T08:27:12.076Z,5.62
2023-02-12T08:28:12.215Z,5.62
2023-02-12T08:29:12.388Z,5.62
2023-02-12T08:30:15.348Z,5.62
2023-02-12T08:31:12.808Z,5.62
2023-02-12T08:32:12.968Z,5.62
2023-02-12T08:33:13.056Z,5.62
2023-02-12T08:34:13.228Z,5.62
2023-02-12T08:35:13.436Z,5.62
2023-02-12T08:36:13.559Z,5.62
2023-02-12T08:37:13.718Z,5.62
2023-02-12T08:38:13.901Z,5.62
2023-02-12T08:39:14.073Z,5.62
2023-02-12T08:40:14.238Z,5.62
2023-02-12T08:41:14.403Z,5.62
2023-02-12T08:42:14.602Z,5.62
2023-02-12T08:43:14.752Z,5.62
2023-02-12T08:44:14.904Z,5.62
2023-02-12T08:45:15.102Z,5.62
2023-02-12T08:46:15.368Z,5.62
2023-02-12T08:47:15.427Z,5.62
2023-02-12T08:48:15.619Z,5.62
2023-02-12T08:49:15.799Z,11.25
2023-02-12T08:50:15.958Z,5.62
2023-02-12T08:51:16.140Z,5.62
2023-02-12T08:52:16.287Z,5.62
2023-02-12T08:53:16.455Z,5.62
2023-02-12T08:54:16.632Z,5.62
2023-02-12T08:55:16.788Z,5.62
2023-02-12T08:56:17.003Z,5.62
2023-02-12T08:57:17.181Z,5.62
2023-02-12T08:58:17.337Z,11.25
2023-02-12T08:59:17.556Z,11.25
2023-02-12T09:00:17.695Z,11.25
2023-02-12T09:01:17.950Z,11.25
2023-02-12T09:02:18.073Z,11.25
2023-02-12T09:03:18.232Z,11.25
2023-02-12T09:04:18.477Z,11.25
2023-02-12T09:05:18.604Z,11.25
2023-02-12T09:06:18.772Z,11.25
2023-02-12T09:07:18.951Z,11.25
2023-02-12T09:08:19.130Z,11.25
2023-02-12T09:09:19.335Z,11.25
2023-02-12T09:10:19.467Z,16.88
2023-02-12T09:11:19.657Z,16.88
2023-02-12T09:12:19.822Z,22.50
2023-02-12T09:13:20.029Z,22.50
2023-02-12T09:14:20.178Z,28.12
2023-02-12T09:15:20.361Z,28.12
2023-02-12T09:16:20.599Z,33.75
2023-02-12T09:17:20.718Z,33.75
2023-02-12T09:18:20.917Z,33.75
2023-02-12T09:19:21.079Z,33.75
2023-02-12T09:20:21.271Z,28.12
2023-02-12T09:21:21.456Z,28.12
2023-02-12T09:22:21.623Z,28.12
2023-02-12T09:23:21.821Z,22.50
2023-02-12T09:24:21.992Z,22.50
2023-02-12T09:25:22.177Z,22.50
2023-02-12T09:26:22.353Z,22.50
2023-02-12T09:27:22.533Z,22.50
2023-02-12T09:28:22.771Z,22.50
2023-02-12T09:29:22.901Z,22.50
2023-02-12T09:30:23.069Z,22.50
2023-02-12T09:31:23.341Z,22.50
2023-02-12T09:32:23.490Z,22.50
2023-02-12T09:33:23.616Z,22.50
2023-02-12T09:34:23.799Z,22.50
2023-02-12T09:35:23.971Z,22.50
2023-02-12T09:36:24.163Z,22.50
2023-02-12T09:37:24.336Z,22.50
2023-02-12T09:38:24.506Z,22.50
2023-02-12T09:39:24.690Z,22.50
2023-02-12T09:40:24.854Z,22.50
2023-02-12T09:41:25.099Z,22.50
2023-02-12T09:42:25.219Z,22.50
2023-02-12T09:43:25.434Z,22.50
2023-02-12T09:44:25.579Z,22.50
2023-02-12T09:45:25.760Z,22.50
2023-02-12T09:46:25.960Z,22.50
2023-02-12T09:47:26.105Z,22.50
2023-02-12T09:48:26.286Z,22.50
2023-02-12T09:49:26.489Z,22.50
2023-02-12T09:50:26.640Z,22.50
2023-02-12T09:51:26.830Z,22.50
2023-02-12T09:52:27.014Z,16.88
2023-02-12T09:53:27.202Z,16.88
2023-02-12T09:54:27.360Z,16.88
2023-02-12T09:55:27.541Z,16.88
2023-02-12T09:56:27.733Z,16.88
2023-02-12T09:57:27.898Z,16.88
2023-02-12T09:58:28.075Z,16.88
2023-02-12T09:59:28.267Z,16.88
2023-02-12T10:00:28.434Z,16.88
2023-02-12T10:01:28.700Z,16.88
2023-02-12T10:02:28.802Z,16.88
2023-02-12T10:03:28.985Z,16.88
2023-02-12T10:04:29.312Z,16.88
2023-02-12T10:05:29.347Z,16.88
2023-02-12T10:06:29.557Z,11.25
2023-02-12T10:07:29.689Z,11.25
2023-02-12T10:08:29.952Z,16.88
2023-02-12T10:09:30.044Z,16.88
2023-02-12T10:10:30.219Z,16.88
2023-02-12T10:11:30.409Z,22.50
2023-02-12T10:12:30.602Z,22.50
2023-02-12T10:13:30.761Z,22.50
2023-02-12T10:14:30.934Z,22.50
2023-02-12T10:15:31.151Z,28.12
2023-02-12T10:16:31.306Z,33.75
2023-02-12T10:17:31.494Z,33.75
2023-02-12T10:18:31.649Z,39.38
2023-02-12T10:19:31.825Z,39.38
2023-02-12T10:20:32.005Z,33.75
2023-02-12T10:21:32.191Z,33.75
2023-02-12T10:22:32.385Z,28.12
2023-02-12T10:23:32.547Z,28.12
2023-02-12T10:24:32.744Z,28.12
2023-02-12T10:25:32.900Z,28.12
2023-02-12T10:26:33.084Z,28.12
2023-02-12T10:27:33.278Z,22.50
2023-02-12T10:28:33.486Z,22.50
2023-02-12T10:29:33.637Z,22.50
2023-02-12T10:30:33.810Z,28.12
2023-02-12T10:31:34.092Z,28.12
2023-02-12T10:32:34.162Z,33.75
2023-02-12T10:33:36.398Z,39.38
2023-02-12T10:34:34.517Z,39.38
2023-02-12T10:35:34.735Z,45.00
2023-02-12T10:36:34.872Z,45.00
2023-02-12T10:37:35.047Z,39.38
2023-02-12T10:38:35.218Z,39.38
2023-02-12T10:39:35.399Z,33.75
2023-02-12T10:40:35.610Z,33.75
2023-02-12T10:41:35.745Z,33.75
2023-02-12T10:42:35.904Z,33.75
2023-02-12T10:43:36.092Z,33.75
2023-02-12T10:44:36.273Z,39.38
2023-02-12T10:45:36.468Z,39.38
2023-02-12T10:46:36.672Z,45.00
2023-02-12T10:47:36.825Z,45.00
2023-02-12T10:48:37.018Z,45.00
2023-02-12T10:49:37.181Z,45.00
2023-02-12T10:50:37.390Z,39.38
2023-02-12T10:51:37.537Z,33.75
2023-02-12T10:52:37.706Z,28.12
2023-02-12T10:53:37.893Z,22.50
2023-02-12T10:54:38.061Z,16.88
2023-02-12T10:55:38.252Z,16.88
2023-02-12T10:56:38.420Z,16.88
2023-02-12T10:57:38.609Z,11.25
2023-02-12T10:58:38.784Z,11.25
2023-02-12T10:59:38.925Z,11.25
2023-02-12T11:00:39.090Z,11.25
2023-02-12T11:01:39.375Z,11.25
2023-02-12T11:02:39.432Z,11.25
2023-02-12T11:03:39.633Z,11.25
2023-02-12T11:04:39.852Z,11.25
2023-02-12T11:05:39.943Z,11.25
2023-02-12T11:06:40.120Z,11.25
2023-02-12T11:07:40.279Z,11.25
2023-02-12T11:08:40.498Z,11.25
2023-02-12T11:09:40.634Z,11.25
2023-02-12T11:10:40.794Z,11.25
2023-02-12T11:11:40.982Z,16.88
2023-02-12T11:12:41.158Z,16.88
2023-02-12T11:13:41.329Z,16.88
2023-02-12T11:14:41.510Z,16.88
2023-02-12T11:15:41.716Z,16.88
2023-02-12T11:16:41.842Z,16.88
2023-02-12T11:17:42.024Z,16.88
2023-02-12T11:18:42.199Z,16.88
2023-02-12T11:19:42.401Z,16.88
2023-02-12T11:20:42.551Z,16.88
2023-02-12T11:21:42.752Z,16.88
2023-02-12T11:22:42.899Z,16.88
2023-02-12T11:23:43.100Z,16.88
2023-02-12T11:24:43.243Z,16.88
2023-02-12T11:25:43.382Z,16.88
2023-02-12T11:26:43.604Z,16.88
2023-02-12T11:27:43.753Z,16.88
2023-02-12T11:28:44.035Z,16.88
2023-02-12T11:29:44.103Z,22.50
2023-02-12T11:30:44.317Z,22.50
2023-02-12T11:31:44.575Z,22.50
2023-02-12T11:32:44.674Z,22.50
2023-02-12T11:33:44.846Z,22.50
2023-02-12T11:34:45.045Z,22.50
2023-02-12T11:35:45.187Z,28.12
2023-02-12T11:36:45.387Z,39.38
2023-02-12T11:37:45.570Z,50.62
2023-02-12T11:38:45.719Z,67.50
2023-02-12T11:39:45.878Z,73.12
2023-02-12T11:40:46.044Z,95.62
2023-02-12T11:41:46.234Z,84.38
2023-02-12T11:42:46.386Z,84.38
2023-02-12T11:43:46.591Z,78.75
2023-02-12T11:44:46.742Z,67.50
2023-02-12T11:45:46.935Z,61.88
2023-02-12T11:46:47.212Z,56.25
2023-02-12T11:47:47.329Z,45.00
2023-02-12T11:48:47.465Z,39.38
2023-02-12T11:49:47.653Z,39.38
2023-02-12T11:50:47.831Z,33.75
2023-02-12T11:51:48.056Z,33.75
2023-02-12T11:52:48.205Z,33.75
2023-02-12T11:53:48.349Z,33.75
2023-02-12T11:54:48.513Z,39.38
2023-02-12T11:55:48.701Z,39.38
2023-02-12T11:56:48.914Z,39.38
2023-02-12T11:57:49.062Z,39.38
2023-02-12T11:58:49.284Z,39.38
2023-02-12T11:59:49.429Z,39.38
2023-02-12T12:00:49.564Z,39.38
2023-02-12T12:01:49.817Z,39.38
2023-02-12T12:02:49.955Z,39.38
2023-02-12T12:03:50.114Z,33.75
2023-02-12T12:04:50.309Z,28.12
2023-02-12T12:05:50.468Z,28.12
2023-02-12T12:06:50.658Z,28.12
2023-02-12T12:07:50.841Z,33.75
2023-02-12T12:08:51.024Z,39.38
2023-02-12T12:09:51.186Z,45.00
2023-02-12T12:10:51.389Z,50.62
2023-02-12T12:11:51.569Z,45.00
2023-02-12T12:12:51.750Z,56.25
2023-02-12T12:13:51.922Z,61.88
2023-02-12T12:14:52.058Z,61.88
2023-02-12T12:15:52.301Z,56.25
2023-02-12T12:16:52.456Z,67.50
2023-02-12T12:17:52.605Z,73.12
2023-02-12T12:18:52.761Z,73.12
2023-02-12T12:19:52.916Z,61.88
2023-02-12T12:20:53.117Z,61.88
2023-02-12T12:21:53.312Z,61.88
2023-02-12T12:22:53.431Z,61.88
2023-02-12T12:23:53.623Z,50.62
2023-02-12T12:24:53.797Z,45.00
2023-02-12T12:25:54.319Z,50.62
2023-02-12T12:26:54.149Z,56.25
2023-02-12T12:27:54.337Z,61.88
2023-02-12T12:28:54.496Z,73.12
2023-02-12T12:29:54.674Z,84.38
2023-02-12T12:30:54.871Z,123.75
2023-02-12T12:31:55.049Z,129.38
2023-02-12T12:32:55.143Z,73.12
2023-02-12T12:33:55.378Z,73.12
2023-02-12T12:34:55.533Z,73.12
2023-02-12T12:35:56.053Z,73.12
2023-02-12T12:36:55.855Z,219.38
2023-02-12T12:37:56.036Z,106.88
2023-02-12T12:38:56.229Z,78.75
2023-02-12T12:39:56.386Z,78.75
2023-02-12T12:40:56.575Z,61.88
2023-02-12T12:41:56.740Z,67.50
2023-02-12T12:42:56.889Z,78.75
2023-02-12T12:43:57.081Z,67.50
2023-02-12T12:44:57.234Z,56.25
2023-02-12T12:45:57.754Z,56.25
2023-02-12T12:46:57.568Z,73.12
2023-02-12T12:47:57.734Z,78.75
2023-02-12T12:48:57.907Z,95.62
2023-02-12T12:49:58.068Z,135.00
2023-02-12T12:50:58.267Z,106.88
2023-02-12T12:51:58.412Z,90.00
2023-02-12T12:52:58.574Z,101.25
2023-02-12T12:53:58.781Z,73.12
2023-02-12T12:54:58.905Z,84.38
2023-02-12T12:55:59.236Z,73.12
2023-02-12T12:56:59.245Z,78.75
2023-02-12T12:57:59.432Z,67.50
2023-02-12T12:58:59.612Z,73.12
2023-02-12T12:59:59.763Z,112.50
2023-02-12T13:01:00.003Z,73.12
2023-02-12T13:02:00.217Z,50.62
2023-02-12T13:03:00.374Z,39.38
2023-02-12T13:04:00.484Z,50.62
2023-02-12T13:05:00.652Z,84.38
2023-02-12T13:06:00.838Z,129.38
2023-02-12T13:07:01.010Z,67.50
2023-02-12T13:08:01.198Z,67.50
2023-02-12T13:09:01.335Z,56.25
2023-02-12T13:10:01.518Z,56.25
2023-02-12T13:11:01.691Z,73.12
2023-02-12T13:12:01.837Z,50.62